Terminal Aerodrome Forecast
Issued by NWS Bismarck, ND

Home | Current Version | Previous Version | Graphics & Text | Print | Product List | Glossary On
Versions: 1 2 3 4 5 6 7 8 9 10 11 12 13 14 15 16
000
FTUS43 KBIS 290200 AAA
TAFBIS
TAF AMD
KBIS 290229Z 2902/2924 32019G25KT 6SM BR OVC012
     FM290600 33014KT P6SM OVC012
     FM291400 34008KT P6SM BKN015
     FM292000 VRB05KT P6SM SCT015=

USA.gov is the U.S. government's official web portal to all federal, state and local government web resources and services.